sensor_id;sensor_type;location;lat;lon;timestamp;P1;durP1;ratioP1;P2;durP2;ratioP2
61527;SDS011;47395;42.032;-8.634;2023-06-19T00:00:36;6.50;;;5.80;;
61527;SDS011;47395;42.032;-8.634;2023-06-19T00:02:38;9.00;;;6.20;;
61527;SDS011;47395;42.032;-8.634;2023-06-19T00:04:42;9.15;;;6.22;;
61527;SDS011;47395;42.032;-8.634;2023-06-19T00:06:43;10.18;;;6.18;;
61527;SDS011;47395;42.032;-8.634;2023-06-19T00:08:44;12.10;;;6.15;;
61527;SDS011;47395;42.032;-8.634;2023-06-19T00:10:45;8.55;;;6.22;;
61527;SDS011;47395;42.032;-8.634;2023-06-19T00:12:45;8.50;;;6.63;;
61527;SDS011;47395;42.032;-8.634;2023-06-19T00:14:46;10.30;;;6.15;;
61527;SDS011;47395;42.032;-8.634;2023-06-19T00:16:47;7.93;;;6.32;;
61527;SDS011;47395;42.032;-8.634;2023-06-19T00:18:48;6.45;;;5.85;;
61527;SDS011;47395;42.032;-8.634;2023-06-19T00:20:49;11.63;;;6.22;;
61527;SDS011;47395;42.032;-8.634;2023-06-19T00:22:49;7.60;;;5.43;;
61527;SDS011;47395;42.032;-8.634;2023-06-19T00:24:52;8.23;;;5.85;;
61527;SDS011;47395;42.032;-8.634;2023-06-19T00:26:52;8.82;;;5.22;;
61527;SDS011;47395;42.032;-8.634;2023-06-19T00:28:53;9.75;;;5.70;;
61527;SDS011;47395;42.032;-8.634;2023-06-19T00:30:56;7.00;;;5.75;;
61527;SDS011;47395;42.032;-8.634;2023-06-19T00:32:57;6.82;;;5.93;;
61527;SDS011;47395;42.032;-8.634;2023-06-19T00:35:03;7.82;;;6.38;;
61527;SDS011;47395;42.032;-8.634;2023-06-19T00:37:05;11.73;;;6.18;;
61527;SDS011;47395;42.032;-8.634;2023-06-19T00:39:06;7.50;;;5.88;;
61527;SDS011;47395;42.032;-8.634;2023-06-19T00:41:08;11.07;;;6.30;;
61527;SDS011;47395;42.032;-8.634;2023-06-19T00:43:09;10.05;;;6.05;;
61527;SDS011;47395;42.032;-8.634;2023-06-19T00:45:10;6.82;;;6.25;;
61527;SDS011;47395;42.032;-8.634;2023-06-19T00:47:11;7.20;;;6.50;;
61527;SDS011;47395;42.032;-8.634;2023-06-19T00:49:13;6.90;;;6.30;;
61527;SDS011;47395;42.032;-8.634;2023-06-19T00:51:15;8.68;;;5.93;;
61527;SDS011;47395;42.032;-8.634;2023-06-19T00:53:17;7.47;;;6.40;;
61527;SDS011;47395;42.032;-8.634;2023-06-19T00:55:19;12.05;;;6.45;;
61527;SDS011;47395;42.032;-8.634;2023-06-19T00:57:21;9.15;;;6.63;;
61527;SDS011;47395;42.032;-8.634;2023-06-19T00:59:22;8.00;;;6.38;;
61527;SDS011;47395;42.032;-8.634;2023-06-19T01:01:23;9.10;;;6.65;;
61527;SDS011;47395;42.032;-8.634;2023-06-19T01:03:24;7.72;;;6.45;;
61527;SDS011;47395;42.032;-8.634;2023-06-19T01:05:27;11.50;;;7.07;;
61527;SDS011;47395;42.032;-8.634;2023-06-19T01:08:03;10.43;;;6.93;;
61527;SDS011;47395;42.032;-8.634;2023-06-19T01:09:59;8.35;;;6.68;;
61527;SDS011;47395;42.032;-8.634;2023-06-19T01:12:08;10.15;;;6.38;;
61527;SDS011;47395;42.032;-8.634;2023-06-19T01:14:25;7.22;;;6.50;;
61527;SDS011;47395;42.032;-8.634;2023-06-19T01:16:31;13.40;;;6.75;;
61527;SDS011;47395;42.032;-8.634;2023-06-19T01:18:33;8.23;;;6.40;;
61527;SDS011;47395;42.032;-8.634;2023-06-19T01:20:34;8.65;;;7.15;;
61527;SDS011;47395;42.032;-8.634;2023-06-19T01:22:35;11.73;;;6.18;;
61527;SDS011;47395;42.032;-8.634;2023-06-19T01:24:39;10.88;;;6.00;;
61527;SDS011;47395;42.032;-8.634;2023-06-19T01:26:41;9.35;;;7.57;;
61527;SDS011;47395;42.032;-8.634;2023-06-19T01:28:44;9.32;;;6.43;;
61527;SDS011;47395;42.032;-8.634;2023-06-19T01:30:46;8.52;;;6.35;;
61527;SDS011;47395;42.032;-8.634;2023-06-19T01:32:53;8.73;;;6.13;;
61527;SDS011;47395;42.032;-8.634;2023-06-19T01:35:00;9.25;;;6.45;;
61527;SDS011;47395;42.032;-8.634;2023-06-19T01:37:03;10.95;;;7.10;;
61527;SDS011;47395;42.032;-8.634;2023-06-19T01:39:05;7.80;;;6.68;;
61527;SDS011;47395;42.032;-8.634;2023-06-19T01:41:08;14.50;;;6.10;;
61527;SDS011;47395;42.032;-8.634;2023-06-19T01:43:10;6.97;;;5.90;;
61527;SDS011;47395;42.032;-8.634;2023-06-19T01:45:12;7.85;;;7.05;;
61527;SDS011;47395;42.032;-8.634;2023-06-19T01:47:13;7.88;;;6.18;;
61527;SDS011;47395;42.032;-8.634;2023-06-19T01:49:18;8.38;;;6.85;;
61527;SDS011;47395;42.032;-8.634;2023-06-19T01:51:20;7.20;;;6.32;;
61527;SDS011;47395;42.032;-8.634;2023-06-19T01:53:21;10.82;;;7.32;;
61527;SDS011;47395;42.032;-8.634;2023-06-19T01:55:21;8.98;;;6.90;;
61527;SDS011;47395;42.032;-8.634;2023-06-19T01:57:22;10.52;;;7.00;;
61527;SDS011;47395;42.032;-8.634;2023-06-19T01:59:23;12.98;;;7.32;;
61527;SDS011;47395;42.032;-8.634;2023-06-19T02:01:25;9.32;;;7.30;;
61527;SDS011;47395;42.032;-8.634;2023-06-19T02:03:25;7.50;;;6.75;;
61527;SDS011;47395;42.032;-8.634;2023-06-19T02:05:27;8.90;;;6.88;;
61527;SDS011;47395;42.032;-8.634;2023-06-19T02:07:28;9.43;;;6.53;;
61527;SDS011;47395;42.032;-8.634;2023-06-19T02:09:28;15.77;;;7.18;;
61527;SDS011;47395;42.032;-8.634;2023-06-19T02:11:29;8.43;;;7.15;;
61527;SDS011;47395;42.032;-8.634;2023-06-19T02:13:30;7.68;;;6.93;;
61527;SDS011;47395;42.032;-8.634;2023-06-19T02:15:31;13.32;;;7.38;;
61527;SDS011;47395;42.032;-8.634;2023-06-19T02:17:32;7.38;;;6.47;;
61527;SDS011;47395;42.032;-8.634;2023-06-19T02:19:33;12.13;;;7.50;;
61527;SDS011;47395;42.032;-8.634;2023-06-19T02:21:34;9.30;;;7.60;;
61527;SDS011;47395;42.032;-8.634;2023-06-19T02:23:35;11.48;;;6.60;;
61527;SDS011;47395;42.032;-8.634;2023-06-19T02:25:36;9.10;;;6.80;;
61527;SDS011;47395;42.032;-8.634;2023-06-19T02:27:37;8.65;;;7.18;;
61527;SDS011;47395;42.032;-8.634;2023-06-19T02:29:38;7.80;;;6.95;;
61527;SDS011;47395;42.032;-8.634;2023-06-19T02:31:39;9.93;;;6.75;;
61527;SDS011;47395;42.032;-8.634;2023-06-19T02:33:40;10.85;;;7.40;;
61527;SDS011;47395;42.032;-8.634;2023-06-19T02:35:41;11.38;;;7.18;;
61527;SDS011;47395;42.032;-8.634;2023-06-19T02:37:43;8.55;;;7.15;;
61527;SDS011;47395;42.032;-8.634;2023-06-19T02:39:44;9.35;;;7.57;;
61527;SDS011;47395;42.032;-8.634;2023-06-19T02:41:46;7.05;;;6.35;;
61527;SDS011;47395;42.032;-8.634;2023-06-19T02:43:47;10.70;;;6.93;;
61527;SDS011;47395;42.032;-8.634;2023-06-19T02:45:48;7.97;;;6.22;;
61527;SDS011;47395;42.032;-8.634;2023-06-19T02:47:49;9.70;;;7.30;;
61527;SDS011;47395;42.032;-8.634;2023-06-19T02:49:52;8.30;;;6.78;;
61527;SDS011;47395;42.032;-8.634;2023-06-19T02:51:53;8.65;;;7.03;;
61527;SDS011;47395;42.032;-8.634;2023-06-19T02:53:55;9.70;;;6.53;;
61527;SDS011;47395;42.032;-8.634;2023-06-19T02:55:56;7.50;;;6.65;;
61527;SDS011;47395;42.032;-8.634;2023-06-19T02:57:57;7.32;;;6.63;;
61527;SDS011;47395;42.032;-8.634;2023-06-19T02:59:58;10.40;;;6.70;;
61527;SDS011;47395;42.032;-8.634;2023-06-19T03:02:00;12.23;;;6.82;;
61527;SDS011;47395;42.032;-8.634;2023-06-19T03:04:01;8.35;;;6.72;;
61527;SDS011;47395;42.032;-8.634;2023-06-19T03:06:05;11.80;;;7.57;;
61527;SDS011;47395;42.032;-8.634;2023-06-19T03:08:06;8.10;;;6.28;;
61527;SDS011;47395;42.032;-8.634;2023-06-19T03:10:07;9.10;;;7.05;;
61527;SDS011;47395;42.032;-8.634;2023-06-19T03:12:09;8.30;;;6.18;;
61527;SDS011;47395;42.032;-8.634;2023-06-19T03:14:10;9.52;;;6.85;;
61527;SDS011;47395;42.032;-8.634;2023-06-19T03:16:12;11.80;;;6.70;;
61527;SDS011;47395;42.032;-8.634;2023-06-19T03:18:15;6.97;;;6.10;;
61527;SDS011;47395;42.032;-8.634;2023-06-19T03:20:16;7.68;;;6.50;;
61527;SDS011;47395;42.032;-8.634;2023-06-19T03:22:24;9.25;;;6.93;;
61527;SDS011;47395;42.032;-8.634;2023-06-19T03:24:26;8.75;;;6.68;;
61527;SDS011;47395;42.032;-8.634;2023-06-19T03:26:29;9.43;;;6.50;;
61527;SDS011;47395;42.032;-8.634;2023-06-19T03:28:34;10.80;;;7.22;;
61527;SDS011;47395;42.032;-8.634;2023-06-19T03:30:36;14.75;;;7.20;;
61527;SDS011;47395;42.032;-8.634;2023-06-19T03:32:37;12.50;;;6.50;;
61527;SDS011;47395;42.032;-8.634;2023-06-19T03:34:39;10.20;;;6.80;;
61527;SDS011;47395;42.032;-8.634;2023-06-19T03:36:42;9.77;;;7.25;;
61527;SDS011;47395;42.032;-8.634;2023-06-19T03:38:44;7.35;;;6.38;;
61527;SDS011;47395;42.032;-8.634;2023-06-19T03:40:48;7.82;;;6.45;;
61527;SDS011;47395;42.032;-8.634;2023-06-19T03:42:50;9.00;;;6.85;;
61527;SDS011;47395;42.032;-8.634;2023-06-19T03:44:51;9.48;;;7.10;;
61527;SDS011;47395;42.032;-8.634;2023-06-19T03:46:52;7.38;;;6.65;;
61527;SDS011;47395;42.032;-8.634;2023-06-19T03:48:53;8.43;;;6.45;;
61527;SDS011;47395;42.032;-8.634;2023-06-19T03:50:54;8.43;;;6.97;;
61527;SDS011;47395;42.032;-8.634;2023-06-19T03:52:55;8.40;;;7.03;;
61527;SDS011;47395;42.032;-8.634;2023-06-19T03:54:56;7.97;;;6.60;;
61527;SDS011;47395;42.032;-8.634;2023-06-19T03:56:57;10.02;;;6.88;;
61527;SDS011;47395;42.032;-8.634;2023-06-19T03:58:58;10.77;;;6.65;;
61527;SDS011;47395;42.032;-8.634;2023-06-19T04:05:27;10.60;;;7.38;;
61527;SDS011;47395;42.032;-8.634;2023-06-19T04:07:30;15.43;;;7.63;;
61527;SDS011;47395;42.032;-8.634;2023-06-19T04:09:33;11.35;;;7.90;;
61527;SDS011;47395;42.032;-8.634;2023-06-19T04:11:35;11.52;;;7.93;;
61527;SDS011;47395;42.032;-8.634;2023-06-19T04:13:36;8.95;;;7.85;;
61527;SDS011;47395;42.032;-8.634;2023-06-19T04:15:43;12.23;;;7.78;;
61527;SDS011;47395;42.032;-8.634;2023-06-19T04:17:44;13.52;;;7.57;;
61527;SDS011;47395;42.032;-8.634;2023-06-19T04:19:45;8.32;;;6.90;;
61527;SDS011;47395;42.032;-8.634;2023-06-19T04:21:46;9.77;;;8.00;;
61527;SDS011;47395;42.032;-8.634;2023-06-19T04:23:47;11.20;;;7.38;;
61527;SDS011;47395;42.032;-8.634;2023-06-19T04:25:48;9.52;;;7.18;;
61527;SDS011;47395;42.032;-8.634;2023-06-19T04:27:49;10.93;;;7.22;;
61527;SDS011;47395;42.032;-8.634;2023-06-19T04:29:50;12.68;;;8.32;;
61527;SDS011;47395;42.032;-8.634;2023-06-19T04:31:53;12.50;;;7.43;;
61527;SDS011;47395;42.032;-8.634;2023-06-19T04:33:54;11.50;;;8.57;;
61527;SDS011;47395;42.032;-8.634;2023-06-19T04:35:56;10.05;;;7.90;;
61527;SDS011;47395;42.032;-8.634;2023-06-19T04:38:03;12.38;;;8.43;;
61527;SDS011;47395;42.032;-8.634;2023-06-19T04:40:04;12.65;;;8.50;;
61527;SDS011;47395;42.032;-8.634;2023-06-19T04:42:07;11.13;;;8.68;;
61527;SDS011;47395;42.032;-8.634;2023-06-19T04:44:10;8.10;;;7.18;;
61527;SDS011;47395;42.032;-8.634;2023-06-19T04:46:14;10.93;;;8.18;;
61527;SDS011;47395;42.032;-8.634;2023-06-19T04:48:20;10.18;;;7.88;;
61527;SDS011;47395;42.032;-8.634;2023-06-19T04:50:25;10.57;;;8.38;;
61527;SDS011;47395;42.032;-8.634;2023-06-19T04:52:25;9.40;;;7.93;;
61527;SDS011;47395;42.032;-8.634;2023-06-19T04:54:26;11.20;;;7.38;;
61527;SDS011;47395;42.032;-8.634;2023-06-19T04:56:27;11.93;;;7.40;;
61527;SDS011;47395;42.032;-8.634;2023-06-19T04:58:28;15.63;;;7.57;;
61527;SDS011;47395;42.032;-8.634;2023-06-19T05:00:29;8.68;;;7.55;;
61527;SDS011;47395;42.032;-8.634;2023-06-19T05:02:30;9.85;;;8.10;;
61527;SDS011;47395;42.032;-8.634;2023-06-19T05:04:31;8.43;;;7.20;;
61527;SDS011;47395;42.032;-8.634;2023-06-19T05:06:33;8.85;;;7.68;;
61527;SDS011;47395;42.032;-8.634;2023-06-19T05:08:34;10.77;;;7.88;;
61527;SDS011;47395;42.032;-8.634;2023-06-19T05:10:35;13.32;;;7.28;;
61527;SDS011;47395;42.032;-8.634;2023-06-19T05:12:35;9.65;;;7.55;;
61527;SDS011;47395;42.032;-8.634;2023-06-19T05:16:39;8.07;;;7.25;;
61527;SDS011;47395;42.032;-8.634;2023-06-19T05:18:40;7.70;;;7.00;;
61527;SDS011;47395;42.032;-8.634;2023-06-19T05:20:41;8.50;;;7.07;;
61527;SDS011;47395;42.032;-8.634;2023-06-19T05:22:42;12.85;;;8.07;;
61527;SDS011;47395;42.032;-8.634;2023-06-19T05:24:43;12.30;;;7.20;;
61527;SDS011;47395;42.032;-8.634;2023-06-19T05:26:45;11.57;;;7.43;;
61527;SDS011;47395;42.032;-8.634;2023-06-19T05:28:49;12.45;;;7.70;;
61527;SDS011;47395;42.032;-8.634;2023-06-19T05:33:01;12.80;;;7.57;;
61527;SDS011;47395;42.032;-8.634;2023-06-19T05:35:02;10.60;;;8.15;;
61527;SDS011;47395;42.032;-8.634;2023-06-19T05:37:03;12.60;;;7.80;;
61527;SDS011;47395;42.032;-8.634;2023-06-19T05:39:04;7.78;;;7.03;;
61527;SDS011;47395;42.032;-8.634;2023-06-19T05:41:05;12.27;;;8.20;;
61527;SDS011;47395;42.032;-8.634;2023-06-19T05:43:09;9.63;;;7.22;;
61527;SDS011;47395;42.032;-8.634;2023-06-19T05:45:10;13.98;;;8.30;;
61527;SDS011;47395;42.032;-8.634;2023-06-19T05:47:11;12.77;;;8.00;;
61527;SDS011;47395;42.032;-8.634;2023-06-19T05:49:12;12.43;;;8.98;;
61527;SDS011;47395;42.032;-8.634;2023-06-19T05:51:13;10.18;;;7.97;;
61527;SDS011;47395;42.032;-8.634;2023-06-19T05:53:14;13.43;;;7.70;;
61527;SDS011;47395;42.032;-8.634;2023-06-19T05:55:15;9.68;;;7.47;;
61527;SDS011;47395;42.032;-8.634;2023-06-19T05:57:16;9.63;;;7.90;;
61527;SDS011;47395;42.032;-8.634;2023-06-19T05:59:20;12.57;;;7.22;;
61527;SDS011;47395;42.032;-8.634;2023-06-19T06:01:22;13.77;;;8.48;;
61527;SDS011;47395;42.032;-8.634;2023-06-19T06:03:23;10.95;;;7.70;;
61527;SDS011;47395;42.032;-8.634;2023-06-19T06:05:28;10.57;;;8.02;;
61527;SDS011;47395;42.032;-8.634;2023-06-19T06:07:32;10.48;;;8.05;;
61527;SDS011;47395;42.032;-8.634;2023-06-19T06:09:33;11.25;;;8.40;;
61527;SDS011;47395;42.032;-8.634;2023-06-19T06:11:34;14.23;;;8.38;;
61527;SDS011;47395;42.032;-8.634;2023-06-19T06:13:34;11.48;;;8.02;;
61527;SDS011;47395;42.032;-8.634;2023-06-19T06:15:36;9.48;;;8.43;;
61527;SDS011;47395;42.032;-8.634;2023-06-19T06:17:36;12.95;;;8.10;;
61527;SDS011;47395;42.032;-8.634;2023-06-19T06:19:37;8.65;;;7.65;;
61527;SDS011;47395;42.032;-8.634;2023-06-19T06:21:39;8.93;;;6.88;;
61527;SDS011;47395;42.032;-8.634;2023-06-19T06:23:40;8.30;;;7.45;;
61527;SDS011;47395;42.032;-8.634;2023-06-19T06:25:42;8.25;;;7.45;;
61527;SDS011;47395;42.032;-8.634;2023-06-19T06:27:43;9.50;;;6.88;;
61527;SDS011;47395;42.032;-8.634;2023-06-19T06:29:44;9.90;;;8.23;;
61527;SDS011;47395;42.032;-8.634;2023-06-19T06:31:45;8.35;;;7.20;;
61527;SDS011;47395;42.032;-8.634;2023-06-19T06:33:47;11.43;;;7.93;;
61527;SDS011;47395;42.032;-8.634;2023-06-19T06:35:51;11.20;;;7.97;;
61527;SDS011;47395;42.032;-8.634;2023-06-19T06:37:52;18.00;;;7.50;;
61527;SDS011;47395;42.032;-8.634;2023-06-19T06:39:53;10.70;;;7.10;;
61527;SDS011;47395;42.032;-8.634;2023-06-19T06:41:56;10.07;;;7.95;;
61527;SDS011;47395;42.032;-8.634;2023-06-19T06:43:57;9.75;;;7.72;;
61527;SDS011;47395;42.032;-8.634;2023-06-19T06:45:58;14.43;;;7.85;;
61527;SDS011;47395;42.032;-8.634;2023-06-19T06:48:02;11.38;;;9.32;;
61527;SDS011;47395;42.032;-8.634;2023-06-19T06:50:06;9.18;;;8.30;;
61527;SDS011;47395;42.032;-8.634;2023-06-19T06:52:08;10.07;;;9.00;;
61527;SDS011;47395;42.032;-8.634;2023-06-19T06:54:09;9.07;;;8.25;;
61527;SDS011;47395;42.032;-8.634;2023-06-19T06:56:10;9.27;;;8.40;;
61527;SDS011;47395;42.032;-8.634;2023-06-19T06:58:13;13.75;;;8.77;;
61527;SDS011;47395;42.032;-8.634;2023-06-19T07:00:14;11.13;;;8.35;;
61527;SDS011;47395;42.032;-8.634;2023-06-19T07:02:16;12.43;;;8.43;;
61527;SDS011;47395;42.032;-8.634;2023-06-19T07:04:17;12.48;;;8.35;;
61527;SDS011;47395;42.032;-8.634;2023-06-19T07:06:20;12.23;;;8.93;;
61527;SDS011;47395;42.032;-8.634;2023-06-19T07:08:23;15.77;;;10.93;;
61527;SDS011;47395;42.032;-8.634;2023-06-19T07:10:29;17.23;;;10.25;;
61527;SDS011;47395;42.032;-8.634;2023-06-19T07:12:32;14.48;;;9.38;;
61527;SDS011;47395;42.032;-8.634;2023-06-19T07:16:44;12.23;;;9.40;;
61527;SDS011;47395;42.032;-8.634;2023-06-19T07:18:51;14.77;;;9.20;;
61527;SDS011;47395;42.032;-8.634;2023-06-19T07:20:52;12.93;;;9.48;;
61527;SDS011;47395;42.032;-8.634;2023-06-19T07:22:56;12.43;;;9.93;;
61527;SDS011;47395;42.032;-8.634;2023-06-19T07:25:03;11.70;;;9.68;;
61527;SDS011;47395;42.032;-8.634;2023-06-19T07:27:07;17.98;;;9.68;;
61527;SDS011;47395;42.032;-8.634;2023-06-19T07:29:12;11.23;;;9.10;;
61527;SDS011;47395;42.032;-8.634;2023-06-19T07:31:15;10.32;;;9.23;;
61527;SDS011;47395;42.032;-8.634;2023-06-19T07:33:26;10.30;;;9.23;;
61527;SDS011;47395;42.032;-8.634;2023-06-19T07:35:32;11.32;;;8.23;;
61527;SDS011;47395;42.032;-8.634;2023-06-19T07:37:36;11.82;;;9.35;;
61527;SDS011;47395;42.032;-8.634;2023-06-19T07:39:40;10.10;;;9.10;;
61527;SDS011;47395;42.032;-8.634;2023-06-19T07:41:46;10.38;;;9.38;;
61527;SDS011;47395;42.032;-8.634;2023-06-19T07:45:53;16.35;;;9.68;;
61527;SDS011;47395;42.032;-8.634;2023-06-19T07:47:55;10.95;;;8.88;;
61527;SDS011;47395;42.032;-8.634;2023-06-19T07:50:01;10.13;;;9.13;;
61527;SDS011;47395;42.032;-8.634;2023-06-19T07:52:05;11.15;;;10.05;;
61527;SDS011;47395;42.032;-8.634;2023-06-19T07:54:06;9.77;;;8.88;;
61527;SDS011;47395;42.032;-8.634;2023-06-19T07:56:07;12.00;;;9.55;;
61527;SDS011;47395;42.032;-8.634;2023-06-19T07:58:14;10.73;;;9.63;;
61527;SDS011;47395;42.032;-8.634;2023-06-19T08:00:15;13.25;;;9.98;;
61527;SDS011;47395;42.032;-8.634;2023-06-19T08:02:16;13.20;;;9.50;;
61527;SDS011;47395;42.032;-8.634;2023-06-19T08:04:18;11.23;;;9.60;;
61527;SDS011;47395;42.032;-8.634;2023-06-19T08:06:19;10.45;;;9.40;;
61527;SDS011;47395;42.032;-8.634;2023-06-19T08:08:20;10.88;;;9.35;;
61527;SDS011;47395;42.032;-8.634;2023-06-19T08:10:20;13.70;;;9.75;;
61527;SDS011;47395;42.032;-8.634;2023-06-19T08:12:21;12.93;;;10.02;;
61527;SDS011;47395;42.032;-8.634;2023-06-19T08:14:22;13.13;;;10.50;;
61527;SDS011;47395;42.032;-8.634;2023-06-19T08:16:24;12.48;;;10.07;;
61527;SDS011;47395;42.032;-8.634;2023-06-19T08:18:26;14.77;;;11.00;;
61527;SDS011;47395;42.032;-8.634;2023-06-19T08:20:27;14.77;;;10.73;;
61527;SDS011;47395;42.032;-8.634;2023-06-19T08:22:28;13.43;;;11.13;;
61527;SDS011;47395;42.032;-8.634;2023-06-19T08:24:29;11.25;;;10.07;;
61527;SDS011;47395;42.032;-8.634;2023-06-19T08:26:29;12.30;;;9.77;;
61527;SDS011;47395;42.032;-8.634;2023-06-19T08:28:31;12.15;;;9.60;;
61527;SDS011;47395;42.032;-8.634;2023-06-19T08:30:32;10.20;;;8.35;;
61527;SDS011;47395;42.032;-8.634;2023-06-19T08:32:36;11.13;;;8.35;;
61527;SDS011;47395;42.032;-8.634;2023-06-19T08:34:37;9.38;;;8.48;;
61527;SDS011;47395;42.032;-8.634;2023-06-19T08:36:39;8.93;;;8.02;;
61527;SDS011;47395;42.032;-8.634;2023-06-19T08:38:40;11.30;;;7.55;;
61527;SDS011;47395;42.032;-8.634;2023-06-19T08:40:44;12.40;;;8.27;;
61527;SDS011;47395;42.032;-8.634;2023-06-19T08:42:45;9.68;;;8.77;;
61527;SDS011;47395;42.032;-8.634;2023-06-19T08:44:46;9.82;;;9.00;;
61527;SDS011;47395;42.032;-8.634;2023-06-19T08:46:47;10.68;;;9.13;;
61527;SDS011;47395;42.032;-8.634;2023-06-19T08:48:50;10.40;;;9.32;;
61527;SDS011;47395;42.032;-8.634;2023-06-19T08:50:51;10.73;;;9.52;;
61527;SDS011;47395;42.032;-8.634;2023-06-19T08:52:52;11.07;;;9.02;;
61527;SDS011;47395;42.032;-8.634;2023-06-19T08:54:53;10.68;;;9.43;;
61527;SDS011;47395;42.032;-8.634;2023-06-19T08:56:54;14.75;;;9.77;;
61527;SDS011;47395;42.032;-8.634;2023-06-19T08:58:55;10.18;;;8.60;;
61527;SDS011;47395;42.032;-8.634;2023-06-19T09:00:59;9.00;;;8.10;;
61527;SDS011;47395;42.032;-8.634;2023-06-19T09:03:01;10.45;;;8.93;;
61527;SDS011;47395;42.032;-8.634;2023-06-19T09:05:10;11.02;;;8.60;;
61527;SDS011;47395;42.032;-8.634;2023-06-19T09:07:12;9.77;;;8.80;;
61527;SDS011;47395;42.032;-8.634;2023-06-19T09:09:20;8.68;;;7.88;;
61527;SDS011;47395;42.032;-8.634;2023-06-19T09:11:25;10.23;;;7.45;;
61527;SDS011;47395;42.032;-8.634;2023-06-19T09:13:28;14.60;;;7.63;;
61527;SDS011;47395;42.032;-8.634;2023-06-19T09:15:31;9.07;;;6.68;;
61527;SDS011;47395;42.032;-8.634;2023-06-19T09:17:36;8.48;;;6.45;;
61527;SDS011;47395;42.032;-8.634;2023-06-19T09:19:48;7.38;;;6.75;;
61527;SDS011;47395;42.032;-8.634;2023-06-19T09:22:02;7.20;;;6.60;;
61527;SDS011;47395;42.032;-8.634;2023-06-19T09:24:07;7.90;;;6.47;;
61527;SDS011;47395;42.032;-8.634;2023-06-19T09:26:09;9.32;;;6.43;;
61527;SDS011;47395;42.032;-8.634;2023-06-19T09:28:16;7.78;;;6.53;;
61527;SDS011;47395;42.032;-8.634;2023-06-19T09:30:18;7.70;;;6.97;;
61527;SDS011;47395;42.032;-8.634;2023-06-19T09:32:27;7.53;;;6.88;;
61527;SDS011;47395;42.032;-8.634;2023-06-19T09:34:29;7.68;;;6.55;;
61527;SDS011;47395;42.032;-8.634;2023-06-19T09:36:31;8.18;;;6.97;;
61527;SDS011;47395;42.032;-8.634;2023-06-19T09:38:37;9.50;;;6.97;;
61527;SDS011;47395;42.032;-8.634;2023-06-19T09:40:45;10.25;;;6.93;;
61527;SDS011;47395;42.032;-8.634;2023-06-19T09:42:48;9.07;;;7.50;;
61527;SDS011;47395;42.032;-8.634;2023-06-19T09:45:02;7.68;;;6.97;;
61527;SDS011;47395;42.032;-8.634;2023-06-19T09:47:04;7.78;;;6.97;;
61527;SDS011;47395;42.032;-8.634;2023-06-19T09:49:17;8.23;;;7.53;;
61527;SDS011;47395;42.032;-8.634;2023-06-19T09:51:21;9.13;;;7.50;;
61527;SDS011;47395;42.032;-8.634;2023-06-19T09:53:29;11.30;;;7.38;;
61527;SDS011;47395;42.032;-8.634;2023-06-19T09:55:31;9.93;;;7.63;;
61527;SDS011;47395;42.032;-8.634;2023-06-19T09:57:34;12.63;;;7.63;;
61527;SDS011;47395;42.032;-8.634;2023-06-19T09:59:36;7.68;;;7.05;;
61527;SDS011;47395;42.032;-8.634;2023-06-19T10:01:38;8.25;;;7.45;;
61527;SDS011;47395;42.032;-8.634;2023-06-19T10:03:39;8.05;;;7.22;;
61527;SDS011;47395;42.032;-8.634;2023-06-19T10:05:41;9.90;;;7.50;;
61527;SDS011;47395;42.032;-8.634;2023-06-19T10:07:42;10.90;;;7.82;;
61527;SDS011;47395;42.032;-8.634;2023-06-19T10:12:13;8.55;;;7.75;;
61527;SDS011;47395;42.032;-8.634;2023-06-19T10:14:14;9.57;;;7.93;;
61527;SDS011;47395;42.032;-8.634;2023-06-19T10:16:21;10.25;;;8.63;;
61527;SDS011;47395;42.032;-8.634;2023-06-19T10:18:22;21.02;;;8.80;;
61527;SDS011;47395;42.032;-8.634;2023-06-19T10:20:35;15.20;;;8.27;;
61527;SDS011;47395;42.032;-8.634;2023-06-19T10:22:49;12.02;;;8.18;;
61527;SDS011;47395;42.032;-8.634;2023-06-19T10:24:51;12.25;;;8.52;;
61527;SDS011;47395;42.032;-8.634;2023-06-19T10:26:58;17.70;;;8.50;;
61527;SDS011;47395;42.032;-8.634;2023-06-19T10:29:01;13.38;;;8.88;;
61527;SDS011;47395;42.032;-8.634;2023-06-19T10:31:13;14.90;;;7.97;;
61527;SDS011;47395;42.032;-8.634;2023-06-19T10:33:14;10.13;;;8.13;;
61527;SDS011;47395;42.032;-8.634;2023-06-19T10:35:16;12.95;;;9.30;;
61527;SDS011;47395;42.032;-8.634;2023-06-19T10:37:31;10.77;;;8.90;;
61527;SDS011;47395;42.032;-8.634;2023-06-19T10:39:33;12.50;;;8.63;;
61527;SDS011;47395;42.032;-8.634;2023-06-19T10:41:34;10.77;;;8.70;;
61527;SDS011;47395;42.032;-8.634;2023-06-19T10:43:35;11.57;;;7.97;;
61527;SDS011;47395;42.032;-8.634;2023-06-19T10:45:35;12.07;;;9.63;;
61527;SDS011;47395;42.032;-8.634;2023-06-19T10:47:37;19.98;;;13.45;;
61527;SDS011;47395;42.032;-8.634;2023-06-19T10:49:39;20.77;;;12.25;;
61527;SDS011;47395;42.032;-8.634;2023-06-19T10:51:41;13.07;;;11.07;;
61527;SDS011;47395;42.032;-8.634;2023-06-19T10:53:44;18.42;;;10.40;;
61527;SDS011;47395;42.032;-8.634;2023-06-19T10:55:44;11.15;;;9.50;;
61527;SDS011;47395;42.032;-8.634;2023-06-19T10:57:45;11.10;;;8.73;;
61527;SDS011;47395;42.032;-8.634;2023-06-19T10:59:46;11.57;;;8.25;;
61527;SDS011;47395;42.032;-8.634;2023-06-19T11:01:51;11.77;;;8.38;;
61527;SDS011;47395;42.032;-8.634;2023-06-19T11:03:52;10.25;;;8.73;;
61527;SDS011;47395;42.032;-8.634;2023-06-19T11:05:53;9.77;;;8.45;;
61527;SDS011;47395;42.032;-8.634;2023-06-19T11:07:55;18.30;;;9.02;;
61527;SDS011;47395;42.032;-8.634;2023-06-19T11:09:57;13.00;;;8.27;;
61527;SDS011;47395;42.032;-8.634;2023-06-19T11:11:57;9.38;;;8.00;;
61527;SDS011;47395;42.032;-8.634;2023-06-19T11:13:59;9.57;;;7.80;;
61527;SDS011;47395;42.032;-8.634;2023-06-19T11:16:00;10.80;;;7.72;;
61527;SDS011;47395;42.032;-8.634;2023-06-19T11:18:01;10.38;;;7.30;;
61527;SDS011;47395;42.032;-8.634;2023-06-19T11:20:03;12.35;;;7.18;;
61527;SDS011;47395;42.032;-8.634;2023-06-19T11:22:09;7.97;;;6.70;;
61527;SDS011;47395;42.032;-8.634;2023-06-19T11:24:10;10.48;;;7.65;;
61527;SDS011;47395;42.032;-8.634;2023-06-19T11:26:13;11.90;;;6.80;;
61527;SDS011;47395;42.032;-8.634;2023-06-19T11:28:14;8.20;;;6.82;;
61527;SDS011;47395;42.032;-8.634;2023-06-19T11:30:15;10.15;;;6.88;;
61527;SDS011;47395;42.032;-8.634;2023-06-19T11:32:16;9.88;;;6.40;;
61527;SDS011;47395;42.032;-8.634;2023-06-19T11:34:30;7.40;;;6.65;;
61527;SDS011;47395;42.032;-8.634;2023-06-19T11:36:32;7.60;;;6.75;;
61527;SDS011;47395;42.032;-8.634;2023-06-19T11:38:41;9.32;;;7.28;;
61527;SDS011;47395;42.032;-8.634;2023-06-19T11:40:50;10.20;;;7.25;;
61527;SDS011;47395;42.032;-8.634;2023-06-19T11:42:52;7.85;;;6.55;;
61527;SDS011;47395;42.032;-8.634;2023-06-19T11:47:01;5.40;;;5.00;;
61527;SDS011;47395;42.032;-8.634;2023-06-19T11:49:16;5.57;;;5.00;;
61527;SDS011;47395;42.032;-8.634;2023-06-19T11:51:20;5.18;;;4.88;;
61527;SDS011;47395;42.032;-8.634;2023-06-19T11:53:24;5.47;;;4.95;;
61527;SDS011;47395;42.032;-8.634;2023-06-19T11:55:25;5.20;;;4.75;;
61527;SDS011;47395;42.032;-8.634;2023-06-19T11:57:26;7.13;;;4.88;;
61527;SDS011;47395;42.032;-8.634;2023-06-19T11:59:27;7.35;;;5.15;;
61527;SDS011;47395;42.032;-8.634;2023-06-19T12:01:28;4.53;;;4.22;;
61527;SDS011;47395;42.032;-8.634;2023-06-19T12:03:30;5.50;;;5.00;;
61527;SDS011;47395;42.032;-8.634;2023-06-19T12:05:31;6.55;;;5.47;;
61527;SDS011;47395;42.032;-8.634;2023-06-19T12:07:31;5.57;;;5.18;;
61527;SDS011;47395;42.032;-8.634;2023-06-19T12:09:33;6.00;;;5.18;;
61527;SDS011;47395;42.032;-8.634;2023-06-19T12:11:34;8.35;;;4.70;;
61527;SDS011;47395;42.032;-8.634;2023-06-19T12:13:35;6.38;;;5.07;;
61527;SDS011;47395;42.032;-8.634;2023-06-19T12:15:36;6.05;;;4.85;;
61527;SDS011;47395;42.032;-8.634;2023-06-19T12:17:37;5.50;;;5.10;;
61527;SDS011;47395;42.032;-8.634;2023-06-19T12:19:37;5.10;;;4.78;;